21:36
Airports
History
Links
Donate
Help keep this website running!
PayPal
Bitcoin
This page is community maintained. The information is intended for PC simulator navigation or reference.
Always use approved charts for navigation.
LIBG
GROTTAGLIE
GROTTAGLIE (LIBG)
Grottaglie, Puglia, Italy (74023)
(C)
Lat/Lng:40° 31' 3.05" N / 17° 24' 11.56" E
40.517513 / 17.403211
Elevation:215'ft / 66mMSL
ID / ICAO:LIBG
Runways:1
Longest:(17-35) 3,202.6m / 10,507ft Asphalt
Controlled:Yes
Distance To
Airport ID:
Airport Radio Frequencies
Tower: 118.7
Approach: 118.7, 122.1
Nearby VORs <50NM
Nearby NDBs
METARUpdated 08-16-17 17:50 GMT
Altimeter: 29.88
Visibility: 6.2 statute miles
Wind: 12 knots (010°)
Temp: 30°c 86°f
Humidity: 37.7%

METAR: LIBG 161750Z 01012KT CAVOK 30/14 Q1012

(Powered by phpweather)
Runway 17 / 35
Dimensions:3202.6 x 45.1m 10507' x 148'ft
Surface:Asphalt
Edge Lights:Medium intensity
Runway 17 [A]Runway 35 [B]
Heading:168°TH 348°TH
Lat:
Lng:
40° 31' 53.87"N
17° 23' 58.19"E
40° 30' 12.22"N
17° 24' 24.93"E
ALS:ALSF-I
TDZ:Yes, lighted
User Notes and Comments
Google Map
Nearby Airports
(C) BRINDISI/Casale 30.0 NM
LIBR (WX) ENE 70°
(C) GIOIA DEL COLLE 30.1 NM
LIBV (WX) NW 305°
(C) LECCE 43.0 NM
LIBN (WX) ESE 116°
(C) Lecce Lepore 48.1 NM
LINL ESE 103°
(C) Bari Palese Macchie 54.5 NM
LIBD (WX) NW 321°
(U) CROTONE 106.4 NM
LIBC (WX) S 189°
(C) AMENDOLA 112.9 NM
LIBA (WX) NW 308°
VFR Chart
Flight Planning at SkyVector.com